createdAt,value
2019-01-24T00:00:34.054Z,66.85
2019-01-24T00:03:01.520Z,66.57
2019-01-24T00:05:28.936Z,66.75
2019-01-24T00:07:56.393Z,66.70
2019-01-24T00:10:23.850Z,66.78
2019-01-24T00:12:51.301Z,66.83
2019-01-24T00:15:18.745Z,66.91
2019-01-24T00:17:46.168Z,66.72
2019-01-24T00:20:13.612Z,66.72
2019-01-24T00:22:41.073Z,66.63
2019-01-24T00:25:08.560Z,66.63
2019-01-24T00:27:35.998Z,66.58
2019-01-24T00:30:03.449Z,66.76
2019-01-24T00:32:30.993Z,66.55
2019-01-24T00:34:58.459Z,66.21
2019-01-24T00:37:25.950Z,66.43
2019-01-24T00:39:53.409Z,66.81
2019-01-24T00:42:21.310Z,66.96
2019-01-24T00:44:48.760Z,67.84
2019-01-24T00:47:16.232Z,66.90
2019-01-24T00:49:43.659Z,66.42
2019-01-24T00:52:11.104Z,66.38
2019-01-24T00:54:38.557Z,66.52
2019-01-24T00:57:06.008Z,66.07
2019-01-24T00:59:33.462Z,66.24
2019-01-24T01:02:00.896Z,66.67
2019-01-24T01:04:29.815Z,66.46
2019-01-24T01:06:55.866Z,66.61
2019-01-24T01:09:23.291Z,66.35
2019-01-24T01:11:50.730Z,66.38
2019-01-24T01:14:18.195Z,66.76
2019-01-24T01:16:45.638Z,66.88
2019-01-24T01:19:14.032Z,66.80
2019-01-24T01:21:41.568Z,66.03
2019-01-24T01:24:08.998Z,66.19
2019-01-24T01:26:36.460Z,67.55
2019-01-24T01:29:03.939Z,66.89
2019-01-24T01:31:31.404Z,66.84
2019-01-24T01:33:59.739Z,67.65
2019-01-24T01:36:27.330Z,68.55
2019-01-24T01:38:54.769Z,67.80
2019-01-24T01:41:22.311Z,67.54
2019-01-24T01:43:49.777Z,67.91
2019-01-24T01:46:17.244Z,67.44
2019-01-24T01:48:44.682Z,66.90
2019-01-24T01:51:12.154Z,67.05
2019-01-24T01:53:39.576Z,67.57
2019-01-24T01:56:07.945Z,67.23
2019-01-24T01:58:35.464Z,66.72
2019-01-24T02:01:02.908Z,66.53
2019-01-24T02:03:30.371Z,66.61
2019-01-24T02:05:57.828Z,66.72
2019-01-24T02:08:25.265Z,66.88
2019-01-24T02:10:52.996Z,67.34
2019-01-24T02:13:20.432Z,67.18
2019-01-24T02:15:47.936Z,67.12
2019-01-24T02:18:15.696Z,66.97
2019-01-24T02:20:43.142Z,66.96
2019-01-24T02:23:10.589Z,66.99
2019-01-24T02:25:38.035Z,67.27
2019-01-24T02:28:05.490Z,69.49
2019-01-24T02:30:32.981Z,68.63
2019-01-24T02:33:00.462Z,68.55
2019-01-24T02:35:27.887Z,67.76
2019-01-24T02:37:55.343Z,67.67
2019-01-24T02:40:24.407Z,67.37
2019-01-24T02:42:51.928Z,66.75
2019-01-24T02:45:20.153Z,66.43
2019-01-24T02:47:47.590Z,66.10
2019-01-24T02:50:16.118Z,65.93
2019-01-24T02:52:43.577Z,65.73
2019-01-24T02:55:11.015Z,65.40
2019-01-24T02:57:38.474Z,65.44
2019-01-24T03:00:06.834Z,66.07
2019-01-24T03:02:34.300Z,65.92
2019-01-24T03:05:01.728Z,65.78
2019-01-24T03:07:29.467Z,65.59
2019-01-24T03:09:56.948Z,65.56
2019-01-24T03:12:24.415Z,65.06
2019-01-24T03:14:51.831Z,64.87
2019-01-24T03:17:19.279Z,64.91
2019-01-24T03:19:46.716Z,65.30
2019-01-24T03:22:14.182Z,64.91
2019-01-24T03:24:41.646Z,64.38
2019-01-24T03:27:09.092Z,64.48
2019-01-24T03:29:36.534Z,64.58
2019-01-24T03:32:03.988Z,65.01
2019-01-24T03:34:31.474Z,65.43
2019-01-24T03:36:58.946Z,65.23
2019-01-24T03:39:26.400Z,65.11
2019-01-24T03:41:54.744Z,65.29
2019-01-24T03:44:22.202Z,66.00
2019-01-24T03:46:49.664Z,65.83
2019-01-24T03:49:17.124Z,65.51
2019-01-24T03:51:44.560Z,65.57
2019-01-24T03:54:12.027Z,65.48
2019-01-24T03:56:39.453Z,65.27
2019-01-24T03:59:06.913Z,65.60
2019-01-24T04:01:34.378Z,65.12
2019-01-24T04:04:01.836Z,64.87
2019-01-24T04:06:29.287Z,65.48
2019-01-24T04:08:56.748Z,65.10
2019-01-24T04:11:24.198Z,65.46
2019-01-24T04:13:51.683Z,65.48
2019-01-24T04:16:19.157Z,65.60
2019-01-24T04:18:46.664Z,65.76
2019-01-24T04:21:14.131Z,65.76
2019-01-24T04:23:41.585Z,65.43
2019-01-24T04:26:09.021Z,65.41
2019-01-24T04:28:38.130Z,65.41
2019-01-24T04:31:05.551Z,64.85
2019-01-24T04:33:33.003Z,64.66
2019-01-24T04:36:00.439Z,64.49
2019-01-24T04:38:27.876Z,65.33
2019-01-24T04:40:55.984Z,65.13
2019-01-24T04:43:23.431Z,65.35
2019-01-24T04:45:50.872Z,65.36
2019-01-24T04:48:18.298Z,65.35
2019-01-24T04:50:46.741Z,65.13
2019-01-24T04:53:14.268Z,64.91
2019-01-24T04:55:41.712Z,64.78
2019-01-24T04:58:09.146Z,64.88
2019-01-24T05:00:36.588Z,64.72
2019-01-24T05:03:04.054Z,64.88
2019-01-24T05:05:31.519Z,64.71
2019-01-24T05:07:58.973Z,64.83
2019-01-24T05:10:26.710Z,65.14
2019-01-24T05:12:54.207Z,65.16
2019-01-24T05:15:21.661Z,65.09
2019-01-24T05:17:49.095Z,64.86
2019-01-24T05:20:16.528Z,65.26
2019-01-24T05:22:43.987Z,65.09
2019-01-24T05:25:12.061Z,66.28
2019-01-24T05:27:39.509Z,68.12
2019-01-24T05:30:09.734Z,68.38
2019-01-24T05:32:37.181Z,68.07
2019-01-24T05:35:04.620Z,67.68
2019-01-24T05:37:32.089Z,67.17
2019-01-24T05:39:59.576Z,67.67
2019-01-24T05:42:27.307Z,67.68
2019-01-24T05:44:54.770Z,67.04
2019-01-24T05:47:22.231Z,66.66
2019-01-24T05:49:49.646Z,66.97
2019-01-24T05:52:19.554Z,66.85
2019-01-24T05:54:44.577Z,66.50
2019-01-24T05:57:12.023Z,66.27
2019-01-24T05:59:39.458Z,65.62
2019-01-24T06:02:06.899Z,65.83
2019-01-24T06:04:34.341Z,65.53
2019-01-24T06:07:01.779Z,65.48
2019-01-24T06:09:29.241Z,65.16
2019-01-24T06:11:56.693Z,64.93
2019-01-24T06:14:24.178Z,65.08
2019-01-24T06:16:51.618Z,64.63
2019-01-24T06:19:19.053Z,64.75
2019-01-24T06:21:49.411Z,73.92
2019-01-24T06:24:16.901Z,68.97
2019-01-24T06:26:44.331Z,66.20
2019-01-24T06:29:11.767Z,65.79
2019-01-24T06:31:39.234Z,65.23
2019-01-24T06:34:06.686Z,64.83
2019-01-24T06:36:34.143Z,64.95
2019-01-24T06:39:01.580Z,64.90
2019-01-24T06:41:29.115Z,64.78
2019-01-24T06:43:56.566Z,66.67
2019-01-24T06:46:24.004Z,66.20
2019-01-24T06:48:51.466Z,65.93
2019-01-24T06:51:18.903Z,65.46
2019-01-24T06:53:46.335Z,65.33
2019-01-24T06:56:13.791Z,65.44
2019-01-24T06:58:41.217Z,65.99
2019-01-24T07:01:08.680Z,64.57
2019-01-24T07:03:36.123Z,64.74
2019-01-24T07:06:03.831Z,64.73
2019-01-24T07:08:31.277Z,64.20
2019-01-24T07:10:58.711Z,64.70
2019-01-24T07:13:26.211Z,64.70
2019-01-24T07:15:53.675Z,65.55
2019-01-24T07:18:21.116Z,64.99
2019-01-24T07:20:48.574Z,64.82
2019-01-24T07:23:16.006Z,64.56
2019-01-24T07:25:43.446Z,64.77
2019-01-24T07:28:10.900Z,64.78
2019-01-24T07:30:38.364Z,67.69
2019-01-24T07:33:05.825Z,67.19
2019-01-24T07:35:33.291Z,67.24
2019-01-24T07:38:00.738Z,66.32
2019-01-24T07:40:28.217Z,67.57
2019-01-24T07:42:55.647Z,67.64
2019-01-24T07:45:26.426Z,67.81
2019-01-24T07:47:53.884Z,67.50
2019-01-24T07:50:21.965Z,67.61
2019-01-24T07:52:49.450Z,66.78
2019-01-24T07:55:16.911Z,67.72
2019-01-24T07:57:44.354Z,68.42
2019-01-24T08:00:16.402Z,68.48
2019-01-24T08:02:43.855Z,68.41
2019-01-24T08:05:11.283Z,68.96
2019-01-24T08:07:38.741Z,68.77
2019-01-24T08:10:08.695Z,68.19
2019-01-24T08:12:36.158Z,67.46
2019-01-24T08:15:03.675Z,68.17
2019-01-24T08:17:31.122Z,68.94
2019-01-24T08:19:58.543Z,69.72
2019-01-24T08:22:25.996Z,69.57
2019-01-24T08:24:53.597Z,68.60
2019-01-24T08:27:21.039Z,68.41
2019-01-24T08:29:48.507Z,69.75
2019-01-24T08:32:15.931Z,70.29
2019-01-24T08:34:43.370Z,70.54
2019-01-24T08:37:10.810Z,69.86
2019-01-24T08:39:38.305Z,70.29
2019-01-24T08:42:05.839Z,70.02
2019-01-24T08:44:33.299Z,70.46
2019-01-24T08:47:00.761Z,72.01
2019-01-24T08:49:28.184Z,71.94
2019-01-24T08:51:55.639Z,72.82
2019-01-24T08:54:23.062Z,71.94
2019-01-24T08:56:50.525Z,71.14
2019-01-24T08:59:17.964Z,70.33
2019-01-24T09:01:45.442Z,69.63
2019-01-24T09:04:12.892Z,69.06
2019-01-24T09:06:40.342Z,68.31
2019-01-24T09:09:08.748Z,69.23
2019-01-24T09:11:36.301Z,69.00
2019-01-24T09:14:03.760Z,69.01
2019-01-24T09:16:31.187Z,70.54
2019-01-24T09:18:58.645Z,71.17
2019-01-24T09:21:26.089Z,70.56
2019-01-24T09:23:53.561Z,69.50
2019-01-24T09:26:21.006Z,68.68
2019-01-24T09:28:48.485Z,67.78
2019-01-24T09:31:16.678Z,66.98
2019-01-24T09:33:44.129Z,67.01
2019-01-24T09:36:11.602Z,66.99
2019-01-24T09:38:39.047Z,67.17
2019-01-24T09:41:06.877Z,66.80
2019-01-24T09:43:34.326Z,66.40
2019-01-24T09:46:01.782Z,66.14
2019-01-24T09:48:29.233Z,66.11
2019-01-24T09:50:56.729Z,65.78
2019-01-24T09:53:24.209Z,65.71
2019-01-24T09:55:51.670Z,65.91
2019-01-24T09:58:19.102Z,66.07
2019-01-24T10:00:46.551Z,65.78
2019-01-24T10:03:13.993Z,65.33
2019-01-24T10:05:41.460Z,65.05
2019-01-24T10:08:08.924Z,65.45
2019-01-24T10:10:36.359Z,64.73
2019-01-24T10:13:03.871Z,64.56
2019-01-24T10:15:31.307Z,65.61
2019-01-24T10:17:58.752Z,66.20
2019-01-24T10:20:26.186Z,65.86
2019-01-24T10:22:53.641Z,65.64
2019-01-24T10:25:21.072Z,65.05
2019-01-24T10:27:48.527Z,65.22
2019-01-24T10:30:15.989Z,64.77
2019-01-24T10:32:43.481Z,65.03
2019-01-24T10:35:10.934Z,65.42
2019-01-24T10:37:38.355Z,66.04
2019-01-24T10:40:05.826Z,65.60
2019-01-24T10:42:33.269Z,66.27
2019-01-24T10:45:00.737Z,67.07
2019-01-24T10:47:28.187Z,67.02
2019-01-24T10:49:55.649Z,67.03
2019-01-24T10:52:23.072Z,65.50
2019-01-24T10:54:50.581Z,64.96
2019-01-24T10:57:18.029Z,64.77
2019-01-24T10:59:45.465Z,64.60
2019-01-24T11:02:12.920Z,64.19
2019-01-24T11:04:40.342Z,64.31
2019-01-24T11:07:08.459Z,63.49
2019-01-24T11:09:35.901Z,63.27
2019-01-24T11:12:03.351Z,64.17
2019-01-24T11:14:30.799Z,65.26
2019-01-24T11:16:58.270Z,66.16
2019-01-24T11:19:25.713Z,66.22
2019-01-24T11:21:53.187Z,66.26
2019-01-24T11:24:20.629Z,66.85
2019-01-24T11:26:48.059Z,69.67
2019-01-24T11:29:15.544Z,70.59
2019-01-24T11:31:42.984Z,70.87
2019-01-24T11:34:10.438Z,70.57
2019-01-24T11:36:37.894Z,70.61
2019-01-24T11:39:05.378Z,71.09
2019-01-24T11:41:32.852Z,70.50
2019-01-24T11:44:00.278Z,69.86
2019-01-24T11:49:20.854Z,68.58
2019-01-24T11:51:48.293Z,68.27
2019-01-24T11:54:15.723Z,68.05
2019-01-24T11:56:43.182Z,68.01
2019-01-24T11:59:10.632Z,67.84
2019-01-24T12:01:38.433Z,67.62
2019-01-24T12:04:05.868Z,68.27
2019-01-24T12:06:33.349Z,69.51
2019-01-24T12:09:00.793Z,70.15
2019-01-24T12:11:28.231Z,70.79
2019-01-24T12:13:55.707Z,70.26
2019-01-24T12:16:23.202Z,71.15
2019-01-24T12:18:50.636Z,69.86
2019-01-24T12:21:18.092Z,69.55
2019-01-24T12:23:45.580Z,68.87
2019-01-24T12:26:13.063Z,67.92
2019-01-24T12:28:40.515Z,69.62
2019-01-24T12:31:07.971Z,68.79
2019-01-24T12:33:35.428Z,68.47
2019-01-24T12:36:02.868Z,67.42
2019-01-24T12:38:30.419Z,66.54
2019-01-24T12:40:57.880Z,67.59
2019-01-24T12:43:25.349Z,68.90
2019-01-24T12:45:52.827Z,69.16
2019-01-24T12:48:20.342Z,70.92
2019-01-24T12:50:47.782Z,69.48
2019-01-24T12:53:15.229Z,69.09
2019-01-24T12:55:42.662Z,68.64
2019-01-24T12:58:10.129Z,68.39
2019-01-24T13:00:37.582Z,70.43
2019-01-24T13:03:05.034Z,70.64
2019-01-24T13:05:33.011Z,69.81
2019-01-24T13:08:00.889Z,69.01
2019-01-24T13:10:28.357Z,68.65
2019-01-24T13:12:55.809Z,67.42
2019-01-24T13:15:26.068Z,67.48
2019-01-24T13:17:53.548Z,67.12
2019-01-24T13:20:20.980Z,67.59
2019-01-24T13:22:48.433Z,67.16
2019-01-24T13:25:17.546Z,66.81
2019-01-24T13:27:46.029Z,66.76
2019-01-24T13:30:24.034Z,66.67
2019-01-24T13:32:51.573Z,66.98
2019-01-24T13:35:19.018Z,66.41
2019-01-24T13:37:46.475Z,80.01
2019-01-24T13:40:13.915Z,70.72
2019-01-24T13:42:41.378Z,67.95
2019-01-24T13:45:09.526Z,65.76
2019-01-24T13:47:36.981Z,64.16
2019-01-24T13:50:04.442Z,65.70
2019-01-24T13:52:32.737Z,64.26
2019-01-24T13:55:00.278Z,64.81
2019-01-24T13:57:27.729Z,65.33
2019-01-24T13:59:55.228Z,65.30
2019-01-24T14:02:22.704Z,64.78
2019-01-24T14:04:50.147Z,65.40
2019-01-24T14:07:17.621Z,65.06
2019-01-24T14:09:45.076Z,65.90
2019-01-24T14:12:12.532Z,66.35
2019-01-24T14:14:39.988Z,66.57
2019-01-24T14:17:07.479Z,67.40
2019-01-24T14:19:34.937Z,67.24
2019-01-24T14:22:02.385Z,67.39
2019-01-24T14:24:29.917Z,67.04
2019-01-24T14:26:57.375Z,66.37
2019-01-24T14:29:24.846Z,66.34
2019-01-24T14:31:52.321Z,66.17
2019-01-24T14:34:19.754Z,66.65
2019-01-24T14:36:47.227Z,67.22
2019-01-24T14:39:14.683Z,66.55
2019-01-24T14:41:42.110Z,67.12
2019-01-24T14:44:09.556Z,66.58
2019-01-24T14:46:36.982Z,65.97
2019-01-24T14:49:04.464Z,66.36
2019-01-24T14:51:32.805Z,66.80
2019-01-24T14:54:00.369Z,68.04
2019-01-24T14:56:27.796Z,67.68
2019-01-24T14:58:55.222Z,67.16
2019-01-24T15:01:22.664Z,67.33
2019-01-24T15:03:50.400Z,67.23
2019-01-24T15:06:17.871Z,66.83
2019-01-24T15:08:45.318Z,66.76
2019-01-24T15:11:12.787Z,66.19
2019-01-24T15:13:40.214Z,65.64
2019-01-24T15:16:07.745Z,65.99
2019-01-24T15:18:35.184Z,65.37
2019-01-24T15:21:03.616Z,66.38
2019-01-24T15:23:31.070Z,66.12
2019-01-24T15:25:58.519Z,65.71
2019-01-24T15:28:25.985Z,64.86
2019-01-24T15:30:53.482Z,65.44
2019-01-24T15:33:20.921Z,66.77
2019-01-24T15:35:48.444Z,65.65
2019-01-24T15:38:15.926Z,66.54
2019-01-24T15:40:43.381Z,67.14
2019-01-24T15:43:10.839Z,65.83
2019-01-24T15:45:38.280Z,66.32
2019-01-24T15:48:05.745Z,66.37
2019-01-24T15:50:34.147Z,67.75
2019-01-24T15:53:01.596Z,68.15
2019-01-24T15:55:29.060Z,67.53
2019-01-24T15:57:56.511Z,67.05
2019-01-24T16:00:26.534Z,66.74
2019-01-24T16:02:53.994Z,67.05
2019-01-24T16:05:21.508Z,67.91
2019-01-24T16:07:48.921Z,67.96
2019-01-24T16:10:16.395Z,68.62
2019-01-24T16:12:43.826Z,68.86
2019-01-24T16:15:13.809Z,68.51
2019-01-24T16:17:41.278Z,67.66
2019-01-24T16:20:09.474Z,66.58
2019-01-24T16:22:36.918Z,66.36
2019-01-24T16:25:05.590Z,66.71
2019-01-24T16:27:33.043Z,66.23
2019-01-24T16:30:00.497Z,67.02
2019-01-24T16:32:27.947Z,68.14
2019-01-24T16:34:55.412Z,68.30
2019-01-24T16:37:22.866Z,68.46
2019-01-24T16:39:50.307Z,67.73
2019-01-24T16:42:17.757Z,67.17
2019-01-24T16:44:45.182Z,67.11
2019-01-24T16:47:12.710Z,68.09
2019-01-24T16:49:40.154Z,67.70
2019-01-24T16:52:07.602Z,67.55
2019-01-24T16:54:35.311Z,67.91
2019-01-24T16:57:02.777Z,68.26
2019-01-24T16:59:30.326Z,67.32
2019-01-24T17:01:57.744Z,67.41
2019-01-24T17:04:25.163Z,67.78
2019-01-24T17:06:52.610Z,66.88
2019-01-24T17:09:20.068Z,67.36
2019-01-24T17:11:47.573Z,68.28
2019-01-24T17:14:22.129Z,67.60
2019-01-24T17:16:43.098Z,67.65
2019-01-24T17:19:10.553Z,67.28
2019-01-24T17:21:37.996Z,66.65
2019-01-24T17:24:05.856Z,66.25
2019-01-24T17:26:33.294Z,65.98
2019-01-24T17:29:00.740Z,65.22
2019-01-24T17:31:28.322Z,66.64
2019-01-24T17:33:55.788Z,66.79
2019-01-24T17:36:23.291Z,68.33
2019-01-24T17:38:50.738Z,68.04
2019-01-24T17:41:18.173Z,67.68
2019-01-24T17:43:45.643Z,67.23
2019-01-24T17:46:13.115Z,66.33
2019-01-24T17:48:40.540Z,66.23
2019-01-24T17:51:07.997Z,65.58
2019-01-24T17:53:35.434Z,66.06
2019-01-24T17:56:02.890Z,65.57
2019-01-24T17:58:30.329Z,67.30
2019-01-24T18:00:57.791Z,67.40
2019-01-24T18:03:25.230Z,65.93
2019-01-24T18:05:52.690Z,65.89
2019-01-24T18:08:20.118Z,65.31
2019-01-24T18:10:47.594Z,65.34
2019-01-24T18:13:15.031Z,65.30
2019-01-24T18:15:42.493Z,66.13
2019-01-24T18:18:10.857Z,67.18
2019-01-24T18:20:38.313Z,65.92
2019-01-24T18:23:05.754Z,66.75
2019-01-24T18:25:33.275Z,66.63
2019-01-24T18:28:00.728Z,65.87
2019-01-24T18:30:28.192Z,64.72
2019-01-24T18:32:55.773Z,65.22
2019-01-24T18:35:23.245Z,66.06
2019-01-24T18:37:50.690Z,67.69
2019-01-24T18:40:18.147Z,68.06
2019-01-24T18:42:46.298Z,67.65
2019-01-24T18:45:14.657Z,67.00
2019-01-24T18:47:42.122Z,66.17
2019-01-24T18:50:10.477Z,66.28
2019-01-24T18:52:37.932Z,66.19
2019-01-24T18:55:05.406Z,65.43
2019-01-24T18:57:32.836Z,64.92
2019-01-24T19:00:00.269Z,64.33
2019-01-24T19:02:27.734Z,63.78
2019-01-24T19:04:55.215Z,63.75
2019-01-24T19:07:22.769Z,64.70
2019-01-24T19:09:50.235Z,64.24
2019-01-24T19:12:17.720Z,64.83
2019-01-24T19:14:45.197Z,64.98
2019-01-24T19:17:12.659Z,64.65
2019-01-24T19:19:40.134Z,64.74
2019-01-24T19:22:08.148Z,64.64
2019-01-24T19:24:35.616Z,63.79
2019-01-24T19:27:03.071Z,63.22
2019-01-24T19:29:30.533Z,63.11
2019-01-24T19:31:57.970Z,63.67
2019-01-24T19:34:25.471Z,64.31
2019-01-24T19:36:53.018Z,63.76
2019-01-24T19:39:20.479Z,63.64
2019-01-24T19:41:47.905Z,64.36
2019-01-24T19:44:16.016Z,64.36
2019-01-24T19:46:43.050Z,63.79
2019-01-24T19:49:11.511Z,63.85
2019-01-24T19:51:38.960Z,65.46
2019-01-24T19:54:06.459Z,65.88
2019-01-24T19:56:33.917Z,66.21
2019-01-24T19:59:01.379Z,65.02
2019-01-24T20:01:28.818Z,64.31
2019-01-24T20:03:56.306Z,63.43
2019-01-24T20:06:23.776Z,64.27
2019-01-24T20:08:51.227Z,63.65
2019-01-24T20:11:20.220Z,64.26
2019-01-24T20:13:47.743Z,63.80
2019-01-24T20:16:15.601Z,63.37
2019-01-24T20:18:43.088Z,63.05
2019-01-24T20:21:10.569Z,63.18
2019-01-24T20:23:38.074Z,62.11
2019-01-24T20:26:05.535Z,63.03
2019-01-24T20:28:33.040Z,63.22
2019-01-24T20:31:00.550Z,63.75
2019-01-24T20:33:29.110Z,63.22
2019-01-24T20:35:56.688Z,63.37
2019-01-24T20:38:24.155Z,62.91
2019-01-24T20:40:51.681Z,62.63
2019-01-24T20:43:19.190Z,61.88
2019-01-24T20:45:46.696Z,63.70
2019-01-24T20:48:14.263Z,63.44
2019-01-24T20:50:41.773Z,63.19
2019-01-24T20:53:09.886Z,61.66
2019-01-24T20:55:37.375Z,62.52
2019-01-24T20:58:06.453Z,63.05
2019-01-24T21:00:34.078Z,63.80
2019-01-24T21:03:01.563Z,64.04
2019-01-24T21:05:29.056Z,63.45
2019-01-24T21:07:56.535Z,63.48
2019-01-24T21:10:32.004Z,62.87
2019-01-24T21:12:59.589Z,63.20
2019-01-24T21:15:27.070Z,63.52
2019-01-24T21:17:54.850Z,63.04
2019-01-24T21:20:23.110Z,62.62
2019-01-24T21:22:50.783Z,62.27
2019-01-24T21:25:18.338Z,62.06
2019-01-24T21:27:46.740Z,61.99
2019-01-24T21:30:15.820Z,61.80
2019-01-24T21:32:43.892Z,61.65
2019-01-24T21:35:11.386Z,61.56
2019-01-24T21:37:38.959Z,61.21
2019-01-24T21:40:07.445Z,61.38
2019-01-24T21:42:35.009Z,61.29
2019-01-24T21:45:02.470Z,61.27
2019-01-24T21:47:29.967Z,61.57
2019-01-24T21:49:57.463Z,61.26
2019-01-24T21:52:25.107Z,60.87
2019-01-24T21:54:52.576Z,60.44
2019-01-24T21:57:20.762Z,60.90
2019-01-24T21:59:48.580Z,60.64
2019-01-24T22:02:16.342Z,60.73
2019-01-24T22:04:43.811Z,60.56
2019-01-24T22:07:11.305Z,60.20
2019-01-24T22:09:38.861Z,60.33
2019-01-24T22:12:06.475Z,60.64
2019-01-24T22:14:34.052Z,60.58
2019-01-24T22:17:02.923Z,60.47
2019-01-24T22:19:30.666Z,60.60
2019-01-24T22:21:58.171Z,60.73
2019-01-24T22:24:25.716Z,61.47
2019-01-24T22:26:53.250Z,61.82
2019-01-24T22:29:20.742Z,60.98
2019-01-24T22:31:48.219Z,60.84
2019-01-24T22:34:15.719Z,61.00
2019-01-24T22:36:43.163Z,61.23
2019-01-24T22:39:10.652Z,61.08
2019-01-24T22:41:38.237Z,61.04
2019-01-24T22:44:06.672Z,60.87
2019-01-24T22:46:34.257Z,62.05
2019-01-24T22:49:01.707Z,61.97
2019-01-24T22:51:29.198Z,61.51
2019-01-24T22:53:56.665Z,61.37
2019-01-24T22:56:24.169Z,61.18
2019-01-24T22:58:51.617Z,60.60
2019-01-24T23:01:24.948Z,60.69
2019-01-24T23:03:52.434Z,61.08
2019-01-24T23:06:19.912Z,61.97
2019-01-24T23:08:47.592Z,62.20
2019-01-24T23:11:15.774Z,62.29
2019-01-24T23:13:43.332Z,63.24
2019-01-24T23:16:10.964Z,62.48
2019-01-24T23:18:38.539Z,62.40
2019-01-24T23:21:06.021Z,62.18
2019-01-24T23:23:33.515Z,62.73
2019-01-24T23:26:00.995Z,62.84
2019-01-24T23:28:28.471Z,62.74
2019-01-24T23:30:55.939Z,62.31
2019-01-24T23:33:23.405Z,62.23
2019-01-24T23:35:50.896Z,61.76
2019-01-24T23:38:18.564Z,61.82
2019-01-24T23:40:46.281Z,62.16
2019-01-24T23:43:13.751Z,61.94
2019-01-24T23:45:41.227Z,61.33
2019-01-24T23:48:08.771Z,61.47
2019-01-24T23:50:36.364Z,61.61
2019-01-24T23:53:04.064Z,61.42
2019-01-24T23:55:31.597Z,61.67
2019-01-24T23:57:59.062Z,61.55
